Time;durP1;ratioP1;P1;durP2;ratioP2;P2;SDS_P1;SDS_P2;PMS_P1;PMS_P2;Temp;Humidity;BMP_temperature;BMP_pressure;BME280_temperature;BME280_humidity;BME280_pressure;Samples;Min_cycle;Max_cycle;Signal;HPM_P1;HPM_P2
2021/12/17 00:01:10;;;;;;;70.85;22.52;;;8.20;99.90;;;;;;5024194;28;20045;-78
2021/12/17 00:03:50;;;;;;;79.30;22.17;;;8.20;99.90;;;;;;5009871;28;20033;-76
2021/12/17 00:08:50;;;;;;;61.08;19.92;;;8.20;99.90;;;;;;4990943;28;20046;-78
2021/12/17 00:11:17;;;;;;;74.70;22.63;;;8.30;99.90;;;;;;5020910;28;20068;-76
2021/12/17 00:13:46;;;;;;;70.05;21.67;;;9.60;99.90;;;;;;5017707;28;20038;-80
2021/12/17 00:16:19;;;;;;;73.47;22.30;;;8.20;99.90;;;;;;4983749;28;20089;-77
2021/12/17 00:48:46;;;;;;;52.17;17.83;;;8.20;99.90;;;;;;5012591;28;20054;-78
2021/12/17 00:54:08;;;;;;;52.03;17.92;;;8.20;99.90;;;;;;4992670;28;20045;-76
2021/12/17 00:56:35;;;;;;;52.25;17.45;;;8.20;99.90;;;;;;4970268;28;20088;-78
2021/12/17 00:59:00;;;;;;;53.90;18.67;;;8.20;99.90;;;;;;5006181;28;20057;-76
2021/12/17 01:01:26;;;;;;;38.90;16.73;;;8.20;99.90;;;;;;5013977;28;20041;-77
2021/12/17 01:03:54;;;;;;;64.45;19.77;;;8.20;99.90;;;;;;4989709;28;20046;-77
2021/12/17 01:06:19;;;;;;;51.13;18.08;;;8.20;99.90;;;;;;5034629;28;20046;-77
2021/12/17 01:08:47;;;;;;;51.28;17.42;;;8.20;99.90;;;;;;4999728;28;20049;-77
2021/12/17 01:11:12;;;;;;;53.70;18.45;;;8.20;99.90;;;;;;5014910;28;20057;-77
2021/12/17 01:13:42;;;;;;;41.50;16.35;;;8.20;99.90;;;;;;5020867;28;20046;-79
2021/12/17 01:16:09;;;;;;;40.47;16.40;;;8.20;99.90;;;;;;4997246;28;20092;-77
2021/12/17 01:42:38;;;;;;;35.17;13.68;;;8.10;99.90;;;;;;5014223;28;20408;-76
2021/12/17 01:45:05;;;;;;;35.97;14.80;;;8.10;99.90;;;;;;4991961;28;20046;-77
2021/12/17 01:47:31;;;;;;;25.23;13.73;;;8.20;99.90;;;;;;5010088;28;20037;-78
2021/12/17 01:55:49;;;;;;;30.38;13.80;;;8.10;99.90;;;;;;5002201;28;20459;-76
2021/12/17 02:01:01;;;;;;;21.77;10.30;;;9.40;99.90;;;;;;5011067;28;20043;-77
2021/12/17 02:03:27;;;;;;;22.45;11.15;;;9.30;99.90;;;;;;5012305;28;20153;-75
2021/12/17 02:05:53;;;;;;;20.08;11.55;;;8.20;99.90;;;;;;5011926;28;20073;-77
2021/12/17 02:08:19;;;;;;;25.45;11.98;;;9.50;99.90;;;;;;5019134;28;20557;-77
2021/12/17 02:32:33;;;;;;;19.40;10.40;;;8.30;99.90;;;;;;5011464;28;20335;-76
2021/12/17 02:37:37;;;;;;;20.90;11.60;;;8.30;99.90;;;;;;5041108;28;20069;-76
2021/12/17 02:42:19;;;;;;;20.63;11.88;;;8.30;99.90;;;;;;4993248;28;20045;-75
2021/12/17 02:45:37;;;;;;;29.92;13.27;;;8.30;99.90;;;;;;5036091;28;20049;-76
2021/12/17 02:48:07;;;;;;;40.13;15.15;;;8.30;99.90;;;;;;5025547;28;20038;-75
2021/12/17 02:50:36;;;;;;;41.05;14.57;;;8.20;99.90;;;;;;5018835;28;20078;-78
2021/12/17 02:53:07;;;;;;;29.17;14.05;;;8.20;99.90;;;;;;4998015;28;20398;-76
2021/12/17 02:55:35;;;;;;;33.17;14.68;;;8.40;99.90;;;;;;4997520;28;20048;-76
2021/12/17 02:58:01;;;;;;;27.77;14.05;;;8.20;99.90;;;;;;4994330;28;20489;-78
2021/12/17 03:00:28;;;;;;;27.70;14.05;;;8.20;99.90;;;;;;5004419;28;20463;-76
2021/12/17 03:02:55;;;;;;;35.33;14.40;;;8.20;99.90;;;;;;5019290;28;20062;-76
2021/12/17 03:05:23;;;;;;;34.42;13.90;;;8.80;99.90;;;;;;5005023;28;20545;-77
2021/12/17 03:07:49;;;;;;;48.72;16.70;;;9.50;99.90;;;;;;4995050;28;20563;-75
2021/12/17 03:10:15;;;;;;;33.92;14.15;;;8.10;99.90;;;;;;5007368;28;20121;-75
2021/12/17 03:12:49;;;;;;;28.55;14.25;;;8.20;99.90;;;;;;5009027;28;20465;-76
2021/12/17 03:15:35;;;;;;;25.63;14.40;;;9.40;99.90;;;;;;4988685;28;20097;-76
2021/12/17 03:25:59;;;;;;;30.42;15.40;;;8.20;99.90;;;;;;5012863;28;20128;-76
2021/12/17 03:28:26;;;;;;;31.55;14.82;;;8.30;99.90;;;;;;5005929;28;20041;-75
2021/12/17 03:30:51;;;;;;;25.77;13.52;;;8.20;99.90;;;;;;5006988;28;20038;-76
2021/12/17 03:33:20;;;;;;;26.27;13.73;;;8.30;99.90;;;;;;5009945;28;20042;-75
2021/12/17 03:35:47;;;;;;;27.92;14.27;;;8.20;99.90;;;;;;4987752;28;20081;-76
2021/12/17 03:38:13;;;;;;;29.75;15.35;;;8.20;99.90;;;;;;4994246;28;20041;-75
2021/12/17 03:40:41;;;;;;;30.20;15.25;;;8.20;99.90;;;;;;5039304;28;20042;-76
2021/12/17 03:43:12;;;;;;;25.60;13.90;;;8.20;99.90;;;;;;5007100;28;20046;-76
2021/12/17 03:45:39;;;;;;;32.03;14.15;;;8.20;99.90;;;;;;5010838;28;20056;-79
2021/12/17 03:48:05;;;;;;;26.95;13.63;;;8.20;99.90;;;;;;5010101;28;20096;-75
2021/12/17 03:50:35;;;;;;;31.42;14.82;;;8.20;99.90;;;;;;4994336;28;20057;-76
2021/12/17 03:53:03;;;;;;;22.25;13.00;;;8.20;99.90;;;;;;5019195;28;20041;-78
2021/12/17 03:55:29;;;;;;;39.90;15.13;;;8.20;99.90;;;;;;4985882;28;20409;-76
2021/12/17 03:57:55;;;;;;;26.55;13.80;;;8.20;99.90;;;;;;5009036;28;20045;-76
2021/12/17 04:00:20;;;;;;;40.50;15.02;;;9.70;99.90;;;;;;4993429;28;20034;-76
2021/12/17 04:02:46;;;;;;;28.00;13.80;;;8.20;99.90;;;;;;5002425;28;20046;-78
2021/12/17 04:05:12;;;;;;;40.35;15.70;;;8.10;99.90;;;;;;4991812;28;20046;-75
2021/12/17 04:07:38;;;;;;;23.52;13.02;;;8.20;99.90;;;;;;5011191;28;20092;-77
2021/12/17 04:10:04;;;;;;;33.40;14.90;;;8.20;99.90;;;;;;4988304;28;20073;-76
2021/12/17 04:13:25;;;;;;;29.52;15.98;;;8.10;99.90;;;;;;5018499;28;20156;-76
2021/12/17 04:15:16;;;;;;;30.58;15.18;;;8.10;99.90;;;;;;4996608;28;20050;-76
2021/12/17 04:17:46;;;;;;;25.10;14.38;;;8.20;99.90;;;;;;5006707;28;20045;-76
2021/12/17 04:20:12;;;;;;;27.58;14.65;;;8.10;99.90;;;;;;5014275;28;20037;-78
2021/12/17 04:22:38;;;;;;;26.95;14.02;;;8.10;99.90;;;;;;5008917;28;20075;-76
2021/12/17 04:25:04;;;;;;;37.03;15.30;;;8.30;99.90;;;;;;4998686;28;20113;-76
2021/12/17 04:27:29;;;;;;;43.78;15.57;;;8.10;99.90;;;;;;5003625;28;20113;-78
2021/12/17 04:29:57;;;;;;;25.98;14.73;;;8.10;99.90;;;;;;5011314;28;20519;-77
2021/12/17 04:32:23;;;;;;;27.10;14.52;;;8.00;99.90;;;;;;5021417;28;20080;-77
2021/12/17 04:34:48;;;;;;;33.80;15.27;;;8.10;99.90;;;;;;5009968;28;20466;-77
2021/12/17 04:37:14;;;;;;;35.45;14.82;;;8.10;99.90;;;;;;5011165;28;20077;-76
2021/12/17 04:39:40;;;;;;;35.08;15.35;;;8.90;99.90;;;;;;4995231;28;20076;-76
2021/12/17 04:42:18;;;;;;;22.67;13.23;;;8.00;99.90;;;;;;5021973;28;20290;-75
2021/12/17 04:44:50;;;;;;;24.25;12.27;;;8.00;99.90;;;;;;5015086;28;20517;-77
2021/12/17 04:57:59;;;;;;;27.60;13.95;;;8.00;99.90;;;;;;5000816;28;20523;-75
2021/12/17 05:00:30;;;;;;;33.97;15.45;;;8.50;99.90;;;;;;5002888;28;20378;-76
2021/12/17 05:02:58;;;;;;;35.58;16.30;;;7.90;99.90;;;;;;5000925;28;20038;-75
2021/12/17 05:05:29;;;;;;;46.08;16.08;;;9.10;99.90;;;;;;5013931;28;20072;-76
2021/12/17 05:08:03;;;;;;;20.92;12.48;;;7.90;99.90;;;;;;5010540;28;20409;-76
2021/12/17 05:18:27;;;;;;;24.25;12.50;;;7.90;99.90;;;;;;5041184;28;19922;-79
2021/12/17 05:21:06;;;;;;;35.15;14.60;;;9.40;99.90;;;;;;5010153;28;20054;-77
2021/12/17 05:23:37;;;;;;;23.15;11.77;;;7.90;99.90;;;;;;5008899;28;20038;-79
2021/12/17 05:26:06;;;;;;;18.67;10.93;;;7.90;99.90;;;;;;5004199;28;20057;-78
2021/12/17 05:28:32;;;;;;;19.85;12.25;;;9.30;99.90;;;;;;5008042;28;20038;-76
2021/12/17 05:30:57;;;;;;;21.67;12.38;;;8.00;99.90;;;;;;4994250;28;20049;-78
2021/12/17 05:33:25;;;;;;;26.15;13.10;;;9.20;99.90;;;;;;5012643;28;20037;-78
2021/12/17 05:35:52;;;;;;;18.13;11.35;;;8.00;99.90;;;;;;5019748;28;20149;-79
2021/12/17 05:38:20;;;;;;;21.23;13.43;;;7.80;99.90;;;;;;5006516;28;20046;-76
2021/12/17 05:40:47;;;;;;;20.65;12.75;;;8.00;99.90;;;;;;5002264;28;20196;-77
2021/12/17 05:43:15;;;;;;;22.50;12.90;;;7.90;99.90;;;;;;5006864;28;20045;-78
2021/12/17 05:48:09;;;;;;;19.05;11.52;;;8.00;99.90;;;;;;5012745;28;20397;-78
2021/12/17 05:50:38;;;;;;;18.83;11.82;;;7.90;99.90;;;;;;4995865;28;20076;-75
2021/12/17 05:53:04;;;;;;;20.90;11.98;;;7.80;99.90;;;;;;4997494;28;20030;-77
2021/12/17 05:55:30;;;;;;;21.35;12.43;;;7.90;99.90;;;;;;5008354;28;20049;-77
2021/12/17 05:57:56;;;;;;;23.90;12.52;;;7.90;99.90;;;;;;5018056;28;20037;-80
2021/12/17 06:00:23;;;;;;;24.63;12.60;;;7.90;99.90;;;;;;4999072;28;20052;-78
2021/12/17 06:02:50;;;;;;;29.95;13.68;;;7.90;99.90;;;;;;5006111;28;20034;-78
2021/12/17 06:05:16;;;;;;;25.25;13.38;;;7.90;99.90;;;;;;5003576;28;20065;-78
2021/12/17 06:07:41;;;;;;;25.52;13.50;;;7.90;99.90;;;;;;5001290;28;20421;-77
2021/12/17 06:10:09;;;;;;;21.75;12.52;;;8.20;99.90;;;;;;5043344;28;20408;-77
2021/12/17 06:12:36;;;;;;;27.92;12.88;;;7.90;99.90;;;;;;5008495;28;20445;-77
2021/12/17 06:15:04;;;;;;;30.45;13.98;;;8.00;99.90;;;;;;5022799;28;20054;-77
2021/12/17 06:17:29;;;;;;;23.98;13.52;;;8.00;99.90;;;;;;5011092;28;20038;-76
2021/12/17 06:19:55;;;;;;;26.42;13.52;;;7.90;99.90;;;;;;4998137;28;20565;-76
2021/12/17 06:22:21;;;;;;;24.42;11.88;;;7.90;99.90;;;;;;5005258;28;20358;-77
2021/12/17 06:24:46;;;;;;;26.98;12.48;;;8.00;99.90;;;;;;5013623;28;20061;-77
2021/12/17 06:27:13;;;;;;;27.75;13.48;;;7.90;99.90;;;;;;5027900;28;20041;-79
2021/12/17 06:29:40;;;;;;;25.52;12.90;;;8.00;99.90;;;;;;4994626;28;20046;-77
2021/12/17 06:32:07;;;;;;;26.98;13.95;;;7.90;99.90;;;;;;5011452;28;20042;-79
2021/12/17 06:34:32;;;;;;;22.20;11.90;;;7.90;99.90;;;;;;4994927;28;20124;-79
2021/12/17 06:36:58;;;;;;;29.65;13.68;;;7.90;99.90;;;;;;5010934;28;20126;-78
2021/12/17 06:39:26;;;;;;;27.15;13.73;;;7.90;99.90;;;;;;4994705;28;20132;-78
2021/12/17 06:41:52;;;;;;;31.58;13.90;;;7.80;99.90;;;;;;4994694;28;20050;-80
2021/12/17 06:44:22;;;;;;;22.75;11.43;;;8.30;99.90;;;;;;4661391;28;10000315;-77
2021/12/17 06:47:07;;;;;;;22.80;12.77;;;7.90;99.90;;;;;;4991735;28;20048;-77
2021/12/17 06:58:36;;;;;;;22.88;11.23;;;7.90;99.90;;;;;;4956527;28;20042;-75
2021/12/17 07:06:52;;;;;;;24.98;11.77;;;7.90;99.90;;;;;;4949347;28;20049;-76
2021/12/17 07:24:50;;;;;;;23.77;11.25;;;7.90;99.90;;;;;;4972265;28;20145;-74
2021/12/17 07:33:22;;;;;;;21.23;11.15;;;7.90;99.90;;;;;;4973502;28;20077;-79
2021/12/17 07:35:53;;;;;;;18.17;11.38;;;7.90;99.90;;;;;;4969658;28;20088;-78
2021/12/17 07:41:01;;;;;;;20.73;12.05;;;7.90;99.90;;;;;;4974115;28;20084;-79
2021/12/17 07:43:41;;;;;;;20.55;10.80;;;7.90;99.90;;;;;;4958653;28;20038;-73
2021/12/17 07:46:10;;;;;;;22.33;11.38;;;7.90;99.90;;;;;;4955985;28;20142;-75
2021/12/17 07:48:38;;;;;;;22.00;11.05;;;7.90;99.90;;;;;;4962257;28;20537;-75
2021/12/17 07:51:07;;;;;;;24.98;11.82;;;7.90;99.90;;;;;;4950901;28;20050;-76
2021/12/17 07:53:34;;;;;;;20.13;11.00;;;7.90;99.90;;;;;;4968787;28;20031;-79
2021/12/17 07:56:01;;;;;;;19.60;11.07;;;7.90;99.90;;;;;;4986147;28;20053;-76
2021/12/17 07:58:28;;;;;;;17.63;10.38;;;7.70;99.90;;;;;;4956990;28;20184;-77
2021/12/17 08:00:54;;;;;;;24.73;11.95;;;7.20;99.90;;;;;;4956345;28;20137;-74
2021/12/17 08:03:20;;;;;;;22.30;11.95;;;7.90;99.90;;;;;;4971695;28;20126;-75
2021/12/17 08:05:46;;;;;;;24.27;11.95;;;7.90;99.90;;;;;;5011484;28;20133;-78
2021/12/17 08:08:12;;;;;;;24.27;12.35;;;9.00;99.90;;;;;;5009189;28;20061;-78
2021/12/17 08:10:38;;;;;;;23.85;12.60;;;8.40;99.90;;;;;;5006602;28;20049;-76
2021/12/17 08:13:06;;;;;;;25.23;11.95;;;7.90;99.90;;;;;;5041442;28;20041;-77
2021/12/17 08:15:38;;;;;;;21.58;11.68;;;7.90;99.90;;;;;;4995160;28;20049;-79
2021/12/17 08:18:25;;;;;;;22.40;11.60;;;7.90;99.90;;;;;;5018938;28;20042;-75
2021/12/17 08:28:25;;;;;;;20.70;10.75;;;8.00;99.90;;;;;;5001924;28;20043;-76
2021/12/17 08:30:51;;;;;;;19.67;10.75;;;8.00;99.90;;;;;;5023792;28;20089;-75
2021/12/17 08:33:20;;;;;;;21.02;11.23;;;8.00;99.90;;;;;;5008299;28;20054;-74
2021/12/17 08:35:46;;;;;;;18.98;11.30;;;8.00;99.90;;;;;;4992448;28;20429;-74
2021/12/17 08:38:12;;;;;;;20.05;11.10;;;8.00;99.90;;;;;;5004323;28;20046;-75
2021/12/17 08:40:38;;;;;;;23.65;11.25;;;8.00;99.90;;;;;;5011993;28;20080;-75
2021/12/17 08:43:04;;;;;;;21.60;10.20;;;8.10;99.90;;;;;;4992536;28;20413;-76
2021/12/17 08:45:32;;;;;;;22.30;11.07;;;8.10;99.90;;;;;;5009102;28;20046;-75
2021/12/17 08:47:58;;;;;;;17.15;9.10;;;8.10;99.90;;;;;;4992470;28;20394;-75
2021/12/17 08:50:23;;;;;;;18.45;10.85;;;8.10;99.90;;;;;;5007899;28;20041;-75
2021/12/17 08:52:49;;;;;;;19.73;10.93;;;8.10;99.90;;;;;;4992999;28;20041;-76
2021/12/17 08:55:16;;;;;;;19.48;11.75;;;9.80;99.90;;;;;;5009532;28;20092;-76
2021/12/17 08:57:42;;;;;;;21.40;11.63;;;8.20;99.90;;;;;;5008555;28;20096;-76
2021/12/17 09:00:09;;;;;;;18.38;11.68;;;8.40;99.90;;;;;;4991466;28;20038;-76
2021/12/17 09:02:37;;;;;;;20.10;11.50;;;8.20;99.90;;;;;;4991984;28;20064;-76
2021/12/17 09:05:07;;;;;;;20.20;11.55;;;8.20;99.90;;;;;;5008884;28;20062;-75
2021/12/17 09:07:33;;;;;;;22.67;12.35;;;8.20;99.90;;;;;;5008425;28;20038;-76
2021/12/17 09:09:59;;;;;;;20.55;12.13;;;8.20;99.90;;;;;;5007277;28;20070;-76
2021/12/17 09:12:25;;;;;;;22.55;11.75;;;8.20;99.90;;;;;;4992311;28;20041;-76
2021/12/17 09:14:51;;;;;;;22.60;11.70;;;8.20;99.90;;;;;;4992635;28;20121;-76
2021/12/17 09:17:19;;;;;;;22.38;12.30;;;8.20;99.90;;;;;;4991518;28;20128;-75
2021/12/17 09:19:44;;;;;;;19.67;11.07;;;8.20;99.90;;;;;;5041816;28;20141;-75
2021/12/17 09:22:10;;;;;;;21.58;11.70;;;8.20;99.90;;;;;;5017762;28;20121;-76
2021/12/17 09:24:36;;;;;;;18.35;11.27;;;8.30;99.90;;;;;;5006974;28;20405;-76
2021/12/17 09:27:01;;;;;;;21.50;11.35;;;8.30;99.90;;;;;;5008274;28;20034;-75
2021/12/17 09:29:27;;;;;;;23.98;10.73;;;8.30;99.90;;;;;;4992092;28;20046;-76
2021/12/17 09:31:53;;;;;;;16.52;10.20;;;8.30;99.90;;;;;;4991956;28;20041;-76
2021/12/17 09:34:18;;;;;;;18.98;11.20;;;8.30;99.90;;;;;;5008383;28;20045;-76
2021/12/17 09:36:44;;;;;;;17.77;10.32;;;8.30;99.90;;;;;;4991141;28;20046;-76
2021/12/17 09:39:10;;;;;;;17.83;10.73;;;8.30;99.90;;;;;;5015877;28;20406;-76
2021/12/17 09:41:36;;;;;;;18.83;11.15;;;8.40;99.90;;;;;;4992275;28;20050;-76
2021/12/17 09:44:02;;;;;;;18.20;10.90;;;8.40;99.90;;;;;;5009080;28;20065;-75
2021/12/17 09:46:28;;;;;;;14.75;10.48;;;8.40;99.90;;;;;;5008209;28;20038;-76
2021/12/17 09:48:54;;;;;;;17.25;10.60;;;8.40;99.90;;;;;;5007952;28;20037;-76
2021/12/17 09:51:21;;;;;;;18.70;10.45;;;8.40;99.90;;;;;;4984669;28;20104;-77
2021/12/17 09:53:47;;;;;;;15.73;9.98;;;8.50;99.90;;;;;;5004725;28;20053;-76
2021/12/17 09:56:13;;;;;;;18.73;10.32;;;8.50;99.90;;;;;;5008349;28;20129;-77
2021/12/17 09:58:39;;;;;;;17.48;10.15;;;10.20;99.90;;;;;;5008277;28;20462;-76
2021/12/17 10:01:05;;;;;;;19.42;10.23;;;8.50;99.90;;;;;;4991479;28;20042;-77
2021/12/17 10:03:31;;;;;;;19.13;10.38;;;8.50;99.90;;;;;;4992215;28;20046;-77
2021/12/17 10:05:57;;;;;;;17.38;10.32;;;8.50;99.90;;;;;;5006652;28;20097;-76
2021/12/17 10:08:25;;;;;;;15.98;9.38;;;8.60;99.90;;;;;;4991144;28;20100;-76
2021/12/17 10:10:59;;;;;;;15.00;10.07;;;8.60;99.90;;;;;;5007423;28;20409;-76
2021/12/17 10:13:31;;;;;;;18.90;10.85;;;8.60;99.90;;;;;;5033133;28;20124;-76
2021/12/17 10:16:08;;;;;;;17.77;10.27;;;8.60;99.90;;;;;;5022739;28;20223;-76
2021/12/17 10:18:40;;;;;;;16.10;9.38;;;8.60;99.90;;;;;;4994687;28;20052;-75
2021/12/17 10:21:11;;;;;;;19.05;10.35;;;8.60;99.90;;;;;;5007023;28;20040;-75
2021/12/17 10:23:40;;;;;;;17.48;10.10;;;8.60;99.90;;;;;;4995548;28;20216;-75
2021/12/17 10:26:13;;;;;;;20.17;10.40;;;8.60;99.90;;;;;;5011120;28;20041;-77
2021/12/17 10:28:55;;;;;;;23.90;10.38;;;8.60;99.90;;;;;;5010827;28;20056;-75
2021/12/17 10:31:21;;;;;;;18.20;9.48;;;8.70;99.90;;;;;;5004042;28;20108;-76
2021/12/17 10:33:53;;;;;;;18.58;9.45;;;8.70;99.90;;;;;;4994861;28;20060;-76
2021/12/17 10:36:33;;;;;;;15.25;9.45;;;8.70;99.90;;;;;;4990570;28;20070;-77
2021/12/17 10:39:03;;;;;;;15.95;8.70;;;8.70;99.90;;;;;;5011560;28;20046;-77
2021/12/17 10:41:29;;;;;;;17.67;8.75;;;8.70;99.90;;;;;;5011081;28;20034;-77
2021/12/17 10:44:06;;;;;;;14.90;8.27;;;8.70;99.90;;;;;;5018401;28;20052;-77
2021/12/17 10:46:35;;;;;;;15.50;8.30;;;10.10;99.90;;;;;;4991796;28;20049;-77
2021/12/17 10:54:20;;;;;;;14.05;8.07;;;8.80;99.90;;;;;;5011197;28;20088;-76
2021/12/17 10:56:47;;;;;;;14.25;7.22;;;8.80;99.90;;;;;;5024249;28;20042;-77
2021/12/17 10:59:19;;;;;;;12.20;7.22;;;8.80;99.90;;;;;;5003610;28;20057;-77
2021/12/17 11:01:55;;;;;;;15.80;7.28;;;8.80;99.90;;;;;;4999910;28;20041;-78
2021/12/17 11:04:23;;;;;;;11.00;6.78;;;8.90;99.90;;;;;;4994360;28;20133;-77
2021/12/17 11:07:09;;;;;;;17.00;8.05;;;8.80;99.90;;;;;;4995098;28;20046;-76
2021/12/17 11:09:38;;;;;;;13.18;6.40;;;8.90;99.90;;;;;;5017393;28;20379;-77
2021/12/17 11:12:22;;;;;;;13.60;7.07;;;8.90;99.90;;;;;;5024577;28;20046;-77
2021/12/17 11:14:49;;;;;;;13.75;6.50;;;8.90;99.90;;;;;;5015653;28;20066;-77
2021/12/17 11:17:17;;;;;;;14.05;6.13;;;8.90;99.90;;;;;;5024661;28;20445;-77
2021/12/17 11:19:43;;;;;;;11.00;6.65;;;7.80;99.90;;;;;;5003111;28;20046;-76
2021/12/17 11:22:09;;;;;;;10.02;6.65;;;8.90;99.90;;;;;;5011202;28;20515;-77
2021/12/17 11:24:37;;;;;;;9.88;6.78;;;9.00;99.90;;;;;;5010253;28;20141;-77
2021/12/17 11:27:07;;;;;;;11.82;7.22;;;9.00;99.90;;;;;;5014473;28;20040;-77
2021/12/17 11:29:33;;;;;;;9.70;6.18;;;9.00;99.90;;;;;;5011814;28;20500;-77
2021/12/17 11:32:00;;;;;;;11.50;6.97;;;8.00;99.90;;;;;;5026626;28;20049;-77
2021/12/17 11:34:30;;;;;;;10.18;6.53;;;9.00;99.90;;;;;;5016611;28;20045;-76
2021/12/17 11:36:57;;;;;;;11.63;6.85;;;9.10;99.90;;;;;;4990256;28;20053;-78
2021/12/17 11:39:26;;;;;;;11.30;7.50;;;9.00;99.90;;;;;;5009222;28;20081;-78
2021/12/17 11:42:16;;;;;;;9.82;6.60;;;9.10;99.90;;;;;;5008718;28;20068;-77
2021/12/17 11:44:51;;;;;;;12.38;6.93;;;9.10;99.90;;;;;;5037579;28;20049;-77
2021/12/17 11:47:17;;;;;;;9.70;6.53;;;9.10;99.90;;;;;;5034488;28;20045;-77
2021/12/17 11:49:50;;;;;;;8.65;6.65;;;9.10;99.90;;;;;;4996910;28;20400;-77
2021/12/17 11:52:34;;;;;;;10.70;5.95;;;9.10;99.90;;;;;;4987040;28;20046;-75
2021/12/17 11:55:33;;;;;;;9.13;5.57;;;9.60;99.90;;;;;;5010593;28;20052;-78
2021/12/17 11:58:01;;;;;;;14.15;5.85;;;9.20;99.90;;;;;;4986931;28;20057;-77
2021/12/17 12:00:42;;;;;;;5.97;5.38;;;9.20;99.90;;;;;;4993311;28;20056;-78
2021/12/17 12:03:24;;;;;;;7.68;5.60;;;9.20;99.90;;;;;;4985690;28;20137;-78
2021/12/17 12:05:56;;;;;;;9.52;5.93;;;9.10;99.90;;;;;;5009409;28;20058;-78
2021/12/17 12:08:50;;;;;;;7.22;5.47;;;9.20;99.90;;;;;;4993810;28;20045;-78
2021/12/17 12:11:27;;;;;;;7.03;5.28;;;9.20;99.90;;;;;;5036289;28;20061;-78
2021/12/17 12:13:55;;;;;;;6.72;5.32;;;9.20;99.90;;;;;;5009872;28;20042;-78
2021/12/17 12:16:26;;;;;;;6.18;5.18;;;9.20;99.90;;;;;;5005084;28;20556;-77
2021/12/17 12:18:52;;;;;;;5.20;4.75;;;9.20;99.90;;;;;;5041821;28;20393;-78
2021/12/17 12:21:24;;;;;;;7.60;5.45;;;9.20;99.90;;;;;;5020678;28;20046;-79
2021/12/17 12:23:53;;;;;;;5.85;5.25;;;9.20;99.90;;;;;;5015070;28;20045;-78
2021/12/17 12:26:23;;;;;;;7.00;5.10;;;9.20;99.90;;;;;;4993935;28;20497;-77
2021/12/17 12:29:03;;;;;;;6.05;5.45;;;9.20;99.90;;;;;;5008009;28;20042;-77
2021/12/17 12:31:32;;;;;;;7.00;4.85;;;9.20;99.90;;;;;;5016830;28;20042;-78
2021/12/17 12:34:04;;;;;;;7.85;5.70;;;9.50;99.90;;;;;;5009499;28;20107;-78
2021/12/17 12:36:59;;;;;;;6.82;5.43;;;9.20;99.90;;;;;;5009389;28;20068;-78
2021/12/17 12:39:30;;;;;;;5.63;5.07;;;9.20;99.90;;;;;;4992655;28;20068;-78
2021/12/17 12:42:22;;;;;;;6.28;5.07;;;10.90;99.90;;;;;;5008475;28;20042;-78
2021/12/17 12:44:47;;;;;;;8.68;5.72;;;9.20;99.90;;;;;;4996155;28;20622;-77
2021/12/17 12:47:31;;;;;;;6.28;5.65;;;9.20;99.90;;;;;;5039578;28;20165;-78
2021/12/17 12:50:06;;;;;;;5.50;5.00;;;9.20;99.90;;;;;;4986456;28;20062;-78
2021/12/17 12:52:32;;;;;;;6.18;5.20;;;10.10;99.90;;;;;;5034616;28;20049;-78
2021/12/17 12:55:07;;;;;;;8.18;4.60;;;9.20;99.90;;;;;;4998549;28;20042;-78
2021/12/17 12:57:36;;;;;;;7.57;5.45;;;9.20;99.90;;;;;;5009312;28;20065;-79
2021/12/17 13:00:31;;;;;;;5.65;5.05;;;9.20;99.90;;;;;;5009423;28;20041;-78
2021/12/17 13:03:01;;;;;;;6.47;5.32;;;9.20;99.90;;;;;;5031944;28;20112;-77
2021/12/17 13:05:27;;;;;;;10.77;4.80;;;9.20;99.90;;;;;;5049616;28;20525;-77
2021/12/17 13:07:58;;;;;;;5.57;4.90;;;9.20;99.90;;;;;;5021824;28;20042;-78
2021/12/17 13:10:28;;;;;;;5.35;4.72;;;9.20;99.90;;;;;;5007838;28;20470;-78
2021/12/17 13:13:08;;;;;;;5.18;4.75;;;9.20;99.90;;;;;;5000053;28;20042;-77
2021/12/17 13:15:50;;;;;;;5.82;4.78;;;10.10;99.90;;;;;;5017733;28;20042;-76
2021/12/17 13:24:13;;;;;;;6.10;4.78;;;9.20;99.90;;;;;;5035030;28;20501;-79
2021/12/17 13:26:42;;;;;;;4.20;3.65;;;9.20;99.90;;;;;;5000303;28;20054;-78
2021/12/17 13:29:15;;;;;;;3.67;3.38;;;9.20;99.90;;;;;;5011880;28;20178;-78
2021/12/17 13:31:49;;;;;;;3.22;2.88;;;9.20;99.90;;;;;;4991378;28;20522;-78
2021/12/17 13:34:20;;;;;;;2.75;2.55;;;9.10;99.90;;;;;;5001207;28;20036;-78
2021/12/17 13:37:18;;;;;;;2.80;2.60;;;9.40;99.90;;;;;;5011840;28;20042;-77
2021/12/17 13:39:52;;;;;;;3.28;3.08;;;9.10;99.90;;;;;;5014360;28;20177;-78
2021/12/17 13:42:19;;;;;;;3.83;2.97;;;9.10;99.90;;;;;;4993921;28;20049;-78
2021/12/17 13:44:47;;;;;;;3.33;3.08;;;9.10;99.90;;;;;;5034550;28;20077;-79
2021/12/17 13:47:19;;;;;;;5.70;4.05;;;9.10;99.90;;;;;;5024834;28;20045;-78
2021/12/17 13:49:56;;;;;;;4.25;3.67;;;9.10;99.90;;;;;;5011946;28;20045;-77
2021/12/17 13:52:24;;;;;;;4.50;4.18;;;9.10;99.90;;;;;;4989824;28;20500;-77
2021/12/17 13:54:51;;;;;;;4.53;4.22;;;9.10;99.90;;;;;;4993925;28;20053;-77
2021/12/17 13:57:19;;;;;;;6.55;4.25;;;9.10;99.90;;;;;;4995332;28;20400;-78
2021/12/17 13:59:46;;;;;;;4.70;4.30;;;9.10;99.90;;;;;;5011908;28;20045;-76
2021/12/17 14:02:18;;;;;;;5.82;4.18;;;9.10;99.90;;;;;;5012011;28;20042;-77
2021/12/17 14:05:08;;;;;;;4.20;3.90;;;9.10;99.90;;;;;;4994798;28;20081;-78
2021/12/17 14:07:35;;;;;;;4.80;4.07;;;9.10;99.90;;;;;;5011340;28;20038;-78
2021/12/17 14:10:07;;;;;;;4.78;4.38;;;9.10;99.90;;;;;;4995877;28;20490;-77
2021/12/17 14:12:37;;;;;;;4.50;4.10;;;9.20;99.90;;;;;;5011270;28;20042;-78
2021/12/17 14:15:23;;;;;;;5.55;4.35;;;9.10;99.90;;;;;;4995948;28;20038;-75
2021/12/17 14:17:54;;;;;;;3.97;3.67;;;9.20;99.90;;;;;;5002235;28;20046;-76
2021/12/17 14:20:22;;;;;;;4.88;4.32;;;9.10;99.90;;;;;;4994939;28;20037;-76
2021/12/17 14:22:51;;;;;;;6.10;4.05;;;9.10;99.90;;;;;;5012408;28;20050;-78
2021/12/17 14:25:42;;;;;;;5.82;4.28;;;9.20;99.90;;;;;;5011914;28;20508;-76
2021/12/17 14:28:18;;;;;;;4.75;4.35;;;9.10;99.90;;;;;;5038464;28;20042;-76
2021/12/17 14:31:04;;;;;;;4.22;3.92;;;9.20;99.90;;;;;;5044995;28;20092;-78
2021/12/17 14:33:38;;;;;;;5.07;4.53;;;9.00;99.90;;;;;;5011145;28;20046;-78
2021/12/17 14:36:08;;;;;;;5.93;4.65;;;9.10;99.90;;;;;;5003200;28;20079;-75
2021/12/17 14:38:43;;;;;;;5.97;5.15;;;9.10;99.90;;;;;;5004371;28;20053;-78
2021/12/17 14:41:18;;;;;;;7.63;4.90;;;9.10;99.90;;;;;;5010940;28;20041;-76
2021/12/17 14:43:57;;;;;;;5.53;5.03;;;9.10;99.90;;;;;;4995815;28;20081;-76
2021/12/17 14:46:26;;;;;;;5.55;4.90;;;9.10;99.90;;;;;;5011009;28;20053;-76
2021/12/17 14:58:16;;;;;;;13.48;5.57;;;9.20;99.90;;;;;;5011019;28;20056;-76
2021/12/17 15:00:25;;;;;;;8.77;5.30;;;9.20;99.90;;;;;;5006034;28;20065;-78
2021/12/17 15:03:07;;;;;;;8.70;5.93;;;9.20;99.90;;;;;;4999946;28;20049;-79
2021/12/17 15:05:33;;;;;;;8.13;5.60;;;9.20;99.90;;;;;;5038921;28;20046;-76
2021/12/17 15:08:00;;;;;;;6.13;5.53;;;9.20;99.90;;;;;;5027741;28;20046;-76
2021/12/17 15:10:27;;;;;;;6.35;5.85;;;9.20;99.90;;;;;;4993394;28;20053;-78
2021/12/17 15:12:56;;;;;;;6.15;4.93;;;9.20;99.90;;;;;;4994861;28;20038;-79
2021/12/17 15:15:25;;;;;;;8.25;5.78;;;9.20;99.90;;;;;;4993871;28;20092;-77
2021/12/17 15:17:54;;;;;;;6.88;5.07;;;9.20;99.90;;;;;;5002794;28;20120;-78
2021/12/17 15:20:28;;;;;;;5.57;4.88;;;9.90;99.90;;;;;;5010652;28;20228;-77
2021/12/17 15:22:56;;;;;;;5.90;5.40;;;9.10;99.90;;;;;;5019218;28;20045;-77
2021/12/17 15:25:23;;;;;;;10.27;5.55;;;9.30;99.90;;;;;;5025978;28;20041;-76
2021/12/17 15:27:50;;;;;;;5.63;5.03;;;9.10;99.90;;;;;;5010660;28;20049;-78
2021/12/17 15:30:30;;;;;;;5.32;4.82;;;8.90;99.90;;;;;;4993454;28;20049;-75
2021/12/17 15:32:55;;;;;;;5.72;5.15;;;9.10;99.90;;;;;;5019694;28;20041;-77
2021/12/17 15:35:23;;;;;;;9.88;8.77;;;9.10;99.90;;;;;;5011091;28;20405;-78
2021/12/17 15:37:51;;;;;;;11.18;9.85;;;9.10;99.90;;;;;;5010994;28;20045;-78
2021/12/17 15:40:17;;;;;;;7.38;6.50;;;9.10;99.90;;;;;;5010118;28;20042;-76
2021/12/17 15:42:43;;;;;;;6.82;6.22;;;9.10;99.90;;;;;;5010535;28;20057;-76
2021/12/17 15:45:09;;;;;;;7.90;6.28;;;9.10;99.90;;;;;;5009665;28;20029;-76
2021/12/17 15:47:36;;;;;;;7.68;6.80;;;9.10;99.90;;;;;;4986455;28;20045;-76
2021/12/17 15:50:03;;;;;;;8.48;6.68;;;9.10;99.90;;;;;;5010446;28;20148;-76
2021/12/17 15:52:29;;;;;;;9.75;6.45;;;9.00;99.90;;;;;;4993269;28;20044;-77
2021/12/17 15:54:55;;;;;;;7.80;6.63;;;9.00;99.90;;;;;;5010376;28;20050;-77
2021/12/17 15:57:20;;;;;;;8.02;6.07;;;9.00;99.90;;;;;;4992510;28;20121;-79
2021/12/17 15:59:48;;;;;;;6.75;5.95;;;9.00;99.90;;;;;;5011529;28;20053;-75
2021/12/17 16:02:15;;;;;;;6.13;5.55;;;9.00;99.90;;;;;;5010091;28;20042;-78
2021/12/17 16:04:44;;;;;;;5.97;5.47;;;9.00;99.90;;;;;;5008605;28;20067;-77
2021/12/17 16:07:10;;;;;;;7.70;6.05;;;9.00;99.90;;;;;;5008791;28;20100;-78